Time;durP1;ratioP1;P1;durP2;ratioP2;P2;SDS_P1;SDS_P2;PMS_P1;PMS_P2;Temp;Humidity;BMP_temperature;BMP_pressure;BME280_temperature;BME280_humidity;BME280_pressure;Samples;Min_cycle;Max_cycle;Signal;HPM_P1;HPM_P2
2021/11/25 00:00:29;;;;;;;51.78;16.83;;;6.00;99.90;;;;;;4962168;28;20077;-80
2021/11/25 00:02:54;;;;;;;59.00;18.27;;;6.10;99.90;;;;;;4962142;28;20027;-81
2021/11/25 00:05:20;;;;;;;59.60;17.83;;;6.10;99.90;;;;;;4962186;28;20081;-80
2021/11/25 00:07:46;;;;;;;55.10;17.45;;;6.10;99.90;;;;;;4980264;28;20023;-80
2021/11/25 00:10:12;;;;;;;54.05;17.80;;;6.10;99.90;;;;;;4962799;28;20206;-80
2021/11/25 00:12:38;;;;;;;60.60;19.20;;;6.10;99.90;;;;;;4980369;28;20050;-80
2021/11/25 00:15:05;;;;;;;61.40;17.30;;;6.10;99.90;;;;;;4979923;28;20540;-81
2021/11/25 00:17:31;;;;;;;58.22;19.77;;;6.10;99.90;;;;;;4980446;28;20058;-80
2021/11/25 00:19:57;;;;;;;75.47;20.13;;;6.10;99.90;;;;;;4978694;28;20376;-80
2021/11/25 00:22:22;;;;;;;57.67;17.67;;;6.10;99.90;;;;;;4962379;28;20031;-81
2021/11/25 00:24:48;;;;;;;66.55;19.10;;;6.10;99.90;;;;;;4979060;28;20026;-80
2021/11/25 00:27:13;;;;;;;59.92;18.80;;;6.10;99.90;;;;;;4962424;28;20027;-80
2021/11/25 00:29:39;;;;;;;63.47;20.38;;;6.10;99.90;;;;;;4962219;28;20023;-80
2021/11/25 00:32:05;;;;;;;69.00;19.23;;;6.10;99.90;;;;;;4977379;28;20058;-81
2021/11/25 00:34:31;;;;;;;60.17;19.95;;;6.10;99.90;;;;;;4961541;28;20472;-81
2021/11/25 00:36:56;;;;;;;62.38;20.17;;;6.10;99.90;;;;;;4981445;28;20058;-81
2021/11/25 00:39:22;;;;;;;60.17;18.85;;;6.10;99.90;;;;;;4982857;28;20026;-80
2021/11/25 00:41:48;;;;;;;65.03;18.77;;;6.10;99.90;;;;;;4964537;28;20027;-80
2021/11/25 00:44:15;;;;;;;57.00;18.27;;;6.00;99.90;;;;;;4982308;28;20026;-81
2021/11/25 00:46:40;;;;;;;60.17;17.52;;;6.10;99.90;;;;;;4965211;28;20027;-81
2021/11/25 00:49:06;;;;;;;54.90;18.30;;;6.10;99.90;;;;;;4981559;28;20023;-81
2021/11/25 00:51:32;;;;;;;57.22;18.23;;;6.10;99.90;;;;;;4983119;28;20099;-80
2021/11/25 00:53:57;;;;;;;55.60;18.50;;;6.00;99.90;;;;;;4982263;28;20038;-81
2021/11/25 00:56:23;;;;;;;64.28;18.13;;;6.00;99.90;;;;;;4981686;28;20031;-80
2021/11/25 00:58:49;;;;;;;58.00;18.15;;;6.00;99.90;;;;;;4964134;28;20198;-80
2021/11/25 01:01:15;;;;;;;69.85;20.00;;;6.00;99.90;;;;;;4964543;28;20579;-80
2021/11/25 01:03:41;;;;;;;60.00;18.67;;;6.00;99.90;;;;;;4982369;28;20019;-81
2021/11/25 01:06:06;;;;;;;63.47;20.05;;;6.00;99.90;;;;;;4964797;28;20031;-80
2021/11/25 01:08:32;;;;;;;55.25;16.48;;;6.00;99.90;;;;;;4981605;28;20037;-81
2021/11/25 01:10:58;;;;;;;58.38;18.30;;;6.00;99.90;;;;;;4964476;28;20054;-81
2021/11/25 01:13:24;;;;;;;60.55;18.42;;;6.00;99.90;;;;;;4966210;28;20031;-82
2021/11/25 01:15:49;;;;;;;57.47;19.05;;;6.00;99.90;;;;;;4966016;28;20031;-82
2021/11/25 01:18:17;;;;;;;51.72;17.02;;;6.00;99.90;;;;;;4985910;28;20049;-82
2021/11/25 01:20:44;;;;;;;60.85;18.02;;;6.00;99.90;;;;;;4968821;28;20033;-82
2021/11/25 01:23:12;;;;;;;56.58;19.15;;;6.00;99.90;;;;;;4967806;28;20022;-81
2021/11/25 01:25:38;;;;;;;58.03;18.23;;;6.00;99.90;;;;;;4966283;28;20094;-81
2021/11/25 01:28:06;;;;;;;53.65;17.10;;;6.00;99.90;;;;;;4983205;28;20487;-82
2021/11/25 01:30:32;;;;;;;50.10;17.05;;;6.00;99.90;;;;;;4965913;28;20027;-81
2021/11/25 01:32:57;;;;;;;57.35;17.48;;;6.00;99.90;;;;;;4981702;28;20046;-81
2021/11/25 01:35:23;;;;;;;50.60;18.27;;;6.00;99.90;;;;;;4983545;28;20027;-81
2021/11/25 01:37:50;;;;;;;57.15;17.90;;;6.00;99.90;;;;;;4966080;28;20027;-81
2021/11/25 01:40:17;;;;;;;52.00;17.35;;;6.00;99.90;;;;;;4964427;28;20054;-81
2021/11/25 01:42:43;;;;;;;52.97;18.08;;;6.00;99.90;;;;;;4964574;28;20122;-81
2021/11/25 01:45:10;;;;;;;56.15;16.50;;;6.00;99.90;;;;;;4982136;28;20025;-81
2021/11/25 01:47:39;;;;;;;50.58;17.05;;;6.00;99.90;;;;;;4980317;28;20083;-81
2021/11/25 01:50:05;;;;;;;53.70;17.85;;;6.10;99.90;;;;;;4980601;28;20027;-81
2021/11/25 01:52:30;;;;;;;52.63;18.45;;;6.00;99.90;;;;;;4981529;28;20027;-81
2021/11/25 01:54:56;;;;;;;52.17;17.25;;;6.00;99.90;;;;;;4980763;28;20050;-81
2021/11/25 01:57:21;;;;;;;54.30;17.10;;;6.00;99.90;;;;;;4963508;28;20045;-81
2021/11/25 01:59:48;;;;;;;47.45;16.95;;;6.00;99.90;;;;;;4980740;28;20058;-81
2021/11/25 02:02:14;;;;;;;51.95;18.33;;;6.00;99.90;;;;;;4963665;28;20031;-81
2021/11/25 02:04:39;;;;;;;50.28;16.13;;;6.00;99.90;;;;;;4963571;28;20022;-81
2021/11/25 02:07:05;;;;;;;51.45;16.02;;;6.00;99.90;;;;;;4963790;28;20471;-81
2021/11/25 02:09:31;;;;;;;48.53;15.82;;;6.00;99.90;;;;;;4963178;28;20118;-80
2021/11/25 02:11:57;;;;;;;51.65;18.13;;;6.00;99.90;;;;;;4964323;28;20432;-81
2021/11/25 02:14:22;;;;;;;50.80;16.60;;;6.00;99.90;;;;;;4963421;28;20069;-81
2021/11/25 02:16:50;;;;;;;58.10;16.95;;;6.00;99.90;;;;;;4964988;28;20101;-81
2021/11/25 02:19:16;;;;;;;47.30;15.30;;;6.00;99.90;;;;;;4965487;28;20063;-80
2021/11/25 02:21:42;;;;;;;49.85;17.10;;;5.90;99.90;;;;;;4981490;28;20038;-81
2021/11/25 02:24:10;;;;;;;44.65;15.73;;;5.90;99.90;;;;;;4981664;28;20107;-81
2021/11/25 02:26:35;;;;;;;50.35;16.75;;;6.00;99.90;;;;;;4963636;28;20030;-81
2021/11/25 02:29:03;;;;;;;47.70;16.60;;;6.00;99.90;;;;;;4981610;28;20102;-81
2021/11/25 02:31:29;;;;;;;41.25;14.77;;;6.00;99.90;;;;;;4980388;28;20059;-81
2021/11/25 02:33:54;;;;;;;44.50;16.60;;;6.00;99.90;;;;;;4980705;28;20022;-80
2021/11/25 02:36:20;;;;;;;44.88;16.10;;;6.00;99.90;;;;;;4980009;28;20030;-80
2021/11/25 02:38:46;;;;;;;39.10;14.68;;;6.00;99.90;;;;;;4979517;28;20098;-80
2021/11/25 02:41:11;;;;;;;42.25;15.80;;;6.00;99.90;;;;;;4980094;28;20023;-80
2021/11/25 02:43:37;;;;;;;41.80;15.23;;;6.00;99.90;;;;;;4961874;28;20022;-81
2021/11/25 02:46:06;;;;;;;45.22;15.10;;;6.00;99.90;;;;;;4962139;28;20082;-81
2021/11/25 02:48:45;;;;;;;43.58;14.35;;;6.00;99.90;;;;;;4962393;28;20019;-81
2021/11/25 02:51:17;;;;;;;37.08;13.02;;;6.00;99.90;;;;;;4964388;28;20046;-80
2021/11/25 02:53:44;;;;;;;39.85;14.40;;;6.00;99.90;;;;;;4983267;28;20053;-81
2021/11/25 02:56:13;;;;;;;40.78;15.40;;;6.00;99.90;;;;;;4963062;28;20127;-80
2021/11/25 02:58:41;;;;;;;41.78;15.23;;;6.00;99.90;;;;;;4980032;28;20026;-80
2021/11/25 03:01:11;;;;;;;41.53;14.82;;;6.00;99.90;;;;;;4982545;28;20027;-81
2021/11/25 03:03:37;;;;;;;41.42;13.93;;;6.00;99.90;;;;;;4982386;28;20027;-80
2021/11/25 03:06:03;;;;;;;36.25;14.18;;;6.00;99.90;;;;;;4961142;28;20041;-80
2021/11/25 03:08:28;;;;;;;43.05;14.30;;;6.00;99.90;;;;;;4978304;28;20019;-80
2021/11/25 03:10:59;;;;;;;38.70;13.73;;;6.00;99.90;;;;;;4977675;28;20400;-80
2021/11/25 03:13:25;;;;;;;40.70;13.95;;;6.00;99.90;;;;;;4981891;28;20102;-80
2021/11/25 03:15:52;;;;;;;34.92;13.68;;;6.00;99.90;;;;;;4965229;28;20054;-80
2021/11/25 03:18:17;;;;;;;36.80;13.52;;;6.10;99.90;;;;;;4981483;28;20373;-80
2021/11/25 03:20:46;;;;;;;40.03;13.15;;;6.00;99.90;;;;;;4982623;28;20041;-79
2021/11/25 03:23:13;;;;;;;34.03;12.93;;;6.00;99.90;;;;;;4982314;28;20023;-82
2021/11/25 03:25:40;;;;;;;36.58;13.00;;;6.00;99.90;;;;;;4964793;28;20543;-80
2021/11/25 03:28:06;;;;;;;38.08;13.35;;;6.00;99.90;;;;;;4982071;28;20027;-80
2021/11/25 03:30:34;;;;;;;40.70;14.27;;;6.00;99.90;;;;;;4981950;28;20025;-80
2021/11/25 03:33:03;;;;;;;36.17;13.70;;;6.30;99.90;;;;;;4978656;28;20034;-80
2021/11/25 03:35:29;;;;;;;41.85;13.25;;;5.90;99.90;;;;;;4960884;28;20018;-80
2021/11/25 03:37:55;;;;;;;36.78;13.80;;;5.90;99.90;;;;;;4962175;28;20045;-80
2021/11/25 03:40:20;;;;;;;41.92;14.48;;;6.00;99.90;;;;;;4983391;28;20019;-80
2021/11/25 03:42:46;;;;;;;35.85;13.93;;;5.90;99.90;;;;;;4965901;28;20027;-82
2021/11/25 03:45:12;;;;;;;38.28;13.95;;;5.90;99.90;;;;;;4965869;28;20026;-79
2021/11/25 03:47:41;;;;;;;41.22;14.30;;;5.90;99.90;;;;;;4983079;28;20023;-80
2021/11/25 03:50:07;;;;;;;38.17;15.77;;;6.70;99.90;;;;;;4966356;28;20023;-79
2021/11/25 03:52:32;;;;;;;35.25;13.77;;;5.90;99.90;;;;;;4981749;28;20031;-81
2021/11/25 03:54:58;;;;;;;38.92;13.60;;;5.90;99.90;;;;;;4981831;28;20022;-80
2021/11/25 03:57:24;;;;;;;35.58;13.50;;;5.90;99.90;;;;;;4982397;28;20035;-79
2021/11/25 03:59:51;;;;;;;42.65;14.63;;;5.90;99.90;;;;;;4963031;28;20571;-80
2021/11/25 04:02:17;;;;;;;38.33;14.90;;;5.90;99.90;;;;;;4963381;28;20034;-80
2021/11/25 04:04:43;;;;;;;39.65;15.55;;;5.90;99.90;;;;;;4963533;28;20023;-81
2021/11/25 04:07:09;;;;;;;37.72;14.40;;;5.80;99.90;;;;;;4981347;28;20042;-80
2021/11/25 04:09:34;;;;;;;43.65;15.48;;;5.80;99.90;;;;;;4979605;28;20026;-79
2021/11/25 04:12:00;;;;;;;44.83;16.58;;;5.80;99.90;;;;;;4961865;28;20022;-80
2021/11/25 04:14:25;;;;;;;42.47;16.13;;;5.70;99.90;;;;;;4963323;28;20023;-80
2021/11/25 04:16:51;;;;;;;41.53;14.90;;;5.70;99.90;;;;;;4980743;28;20085;-80
2021/11/25 04:19:17;;;;;;;45.17;17.23;;;5.70;99.90;;;;;;4980795;28;20402;-80
2021/11/25 04:21:42;;;;;;;47.55;16.23;;;5.70;99.90;;;;;;4963677;28;20436;-80
2021/11/25 04:24:08;;;;;;;45.88;15.10;;;5.70;99.90;;;;;;4987463;28;20019;-81
2021/11/25 04:26:34;;;;;;;47.10;16.00;;;5.70;99.90;;;;;;4968670;28;20403;-79
2021/11/25 04:28:59;;;;;;;46.60;16.58;;;5.60;99.90;;;;;;4984989;28;20035;-80
2021/11/25 04:37:07;;;;;;;45.38;16.55;;;5.60;99.90;;;;;;4984840;28;20400;-80
2021/11/25 04:39:32;;;;;;;47.95;17.83;;;5.60;99.90;;;;;;4983572;28;20019;-80
2021/11/25 04:41:58;;;;;;;44.72;16.20;;;5.60;99.90;;;;;;4966782;28;20094;-79
2021/11/25 04:44:23;;;;;;;44.05;17.15;;;5.60;99.90;;;;;;4983824;28;20023;-80
2021/11/25 04:46:49;;;;;;;41.65;15.82;;;5.60;99.90;;;;;;4965389;28;20502;-79
2021/11/25 04:49:15;;;;;;;38.95;14.88;;;5.60;99.90;;;;;;4965861;28;20023;-79
2021/11/25 04:51:41;;;;;;;47.00;15.63;;;5.60;99.90;;;;;;4965462;28;20110;-79
2021/11/25 04:54:06;;;;;;;44.25;16.80;;;5.60;99.90;;;;;;4983085;28;20023;-79
2021/11/25 04:56:33;;;;;;;42.38;16.02;;;5.50;99.90;;;;;;4982864;28;20383;-81
2021/11/25 04:58:58;;;;;;;38.35;15.27;;;5.50;99.90;;;;;;4983264;28;20498;-79
2021/11/25 05:01:24;;;;;;;44.75;16.27;;;5.50;99.90;;;;;;4964930;28;20019;-81
2021/11/25 05:03:49;;;;;;;46.92;16.70;;;5.50;99.90;;;;;;4981955;28;20023;-80
2021/11/25 05:06:15;;;;;;;40.67;15.75;;;7.90;99.90;;;;;;4983292;28;20045;-79
2021/11/25 05:08:41;;;;;;;42.83;15.48;;;5.40;99.90;;;;;;4981879;28;20061;-80
2021/11/25 05:11:07;;;;;;;40.05;15.10;;;5.40;99.90;;;;;;4965589;28;20098;-80
2021/11/25 05:13:33;;;;;;;42.80;16.27;;;5.40;99.90;;;;;;4965921;28;20073;-80
2021/11/25 05:16:00;;;;;;;39.70;15.85;;;5.40;99.90;;;;;;4965724;28;20067;-80
2021/11/25 05:18:26;;;;;;;43.25;15.80;;;5.40;99.90;;;;;;4965097;28;20035;-80
2021/11/25 05:20:52;;;;;;;43.97;16.63;;;5.40;99.90;;;;;;4966350;28;20026;-81
2021/11/25 05:23:18;;;;;;;43.78;16.90;;;5.40;99.90;;;;;;4964411;28;20440;-81
2021/11/25 05:25:43;;;;;;;43.50;16.23;;;5.40;99.90;;;;;;4983991;28;20117;-81
2021/11/25 05:28:09;;;;;;;44.25;17.70;;;5.40;99.90;;;;;;4965941;28;20029;-80
2021/11/25 05:30:35;;;;;;;42.47;15.75;;;5.30;99.90;;;;;;4981180;28;20557;-79
2021/11/25 05:33:01;;;;;;;44.47;15.90;;;5.30;99.90;;;;;;4979903;28;20022;-79
2021/11/25 05:35:27;;;;;;;43.78;16.98;;;5.30;99.90;;;;;;4979900;28;20023;-80
2021/11/25 05:37:53;;;;;;;43.85;16.25;;;5.30;99.90;;;;;;4969185;28;20019;-80
2021/11/25 05:40:19;;;;;;;41.05;16.08;;;5.40;99.90;;;;;;4987440;28;20027;-80
2021/11/25 05:42:45;;;;;;;37.90;15.65;;;5.30;99.90;;;;;;4980179;28;20558;-79
2021/11/25 05:45:17;;;;;;;47.45;16.95;;;5.40;99.90;;;;;;4978935;28;20065;-79
2021/11/25 05:47:43;;;;;;;48.22;17.40;;;5.40;99.90;;;;;;4986706;28;20033;-80
2021/11/25 05:50:17;;;;;;;43.08;15.95;;;5.40;99.90;;;;;;4964350;28;20019;-80
2021/11/25 05:52:44;;;;;;;44.50;17.42;;;5.40;99.90;;;;;;4981335;28;20507;-80
2021/11/25 05:55:09;;;;;;;44.25;16.52;;;5.50;99.90;;;;;;4982013;28;20101;-80
2021/11/25 05:57:35;;;;;;;46.05;16.98;;;5.50;99.90;;;;;;4965329;28;20046;-82
2021/11/25 06:00:01;;;;;;;43.03;15.35;;;5.50;99.90;;;;;;4964756;28;20031;-82
2021/11/25 06:02:26;;;;;;;47.33;18.05;;;5.50;99.90;;;;;;4963565;28;20061;-82
2021/11/25 06:04:52;;;;;;;46.03;15.95;;;5.40;99.90;;;;;;4980654;28;20015;-82
2021/11/25 06:07:18;;;;;;;49.15;16.70;;;5.40;99.90;;;;;;4963146;28;20508;-83
2021/11/25 06:09:43;;;;;;;41.38;16.00;;;5.40;99.90;;;;;;4980735;28;20019;-82
2021/11/25 06:12:09;;;;;;;39.92;15.23;;;5.40;99.90;;;;;;4980763;28;20033;-81
2021/11/25 06:14:35;;;;;;;42.97;15.00;;;5.40;99.90;;;;;;4980136;28;20161;-81
2021/11/25 06:17:02;;;;;;;44.17;16.20;;;5.40;99.90;;;;;;4980428;28;20066;-82
2021/11/25 06:19:28;;;;;;;37.85;14.68;;;5.40;99.90;;;;;;4963420;28;20106;-82
2021/11/25 06:21:54;;;;;;;47.58;15.63;;;5.40;99.90;;;;;;4963196;28;20046;-82
2021/11/25 06:24:20;;;;;;;44.22;15.23;;;5.40;99.90;;;;;;4962709;28;20460;-81
2021/11/25 06:26:49;;;;;;;47.33;16.67;;;5.40;99.90;;;;;;4963403;28;20047;-82
2021/11/25 06:29:16;;;;;;;43.38;16.23;;;5.50;99.90;;;;;;4964758;28;20069;-83
2021/11/25 06:31:41;;;;;;;44.10;16.85;;;5.40;99.90;;;;;;4963288;28;20030;-82
2021/11/25 06:34:07;;;;;;;48.35;16.83;;;5.50;99.90;;;;;;4979736;28;20031;-79
2021/11/25 06:36:33;;;;;;;44.20;15.88;;;5.50;99.90;;;;;;4961142;28;20035;-80
2021/11/25 06:38:58;;;;;;;47.70;16.40;;;5.50;99.90;;;;;;4962219;28;20019;-78
2021/11/25 06:41:24;;;;;;;43.17;16.35;;;5.60;99.90;;;;;;4961037;28;20392;-78
2021/11/25 06:43:49;;;;;;;42.30;14.90;;;5.60;99.90;;;;;;4976252;28;20050;-78
2021/11/25 06:46:15;;;;;;;37.67;15.13;;;5.60;99.90;;;;;;4976262;28;20023;-78
2021/11/25 06:48:41;;;;;;;52.63;16.00;;;5.70;99.90;;;;;;4958827;28;20456;-77
2021/11/25 06:51:06;;;;;;;56.67;17.30;;;5.70;99.90;;;;;;4975783;28;20109;-78
2021/11/25 06:53:32;;;;;;;52.40;17.33;;;5.60;99.90;;;;;;4975825;28;20053;-78
2021/11/25 06:55:57;;;;;;;44.58;17.30;;;5.60;99.90;;;;;;4975571;28;20015;-78
2021/11/25 06:58:23;;;;;;;43.88;15.70;;;5.60;99.90;;;;;;4975467;28;20062;-78
2021/11/25 07:00:48;;;;;;;50.58;17.58;;;5.60;99.90;;;;;;4973630;28;20022;-79
2021/11/25 07:03:14;;;;;;;44.38;15.93;;;5.70;99.90;;;;;;4976460;28;20476;-78
2021/11/25 07:05:40;;;;;;;52.97;17.85;;;5.60;99.90;;;;;;4975997;28;20034;-78
2021/11/25 07:08:07;;;;;;;49.10;16.27;;;5.70;99.90;;;;;;4976581;28;20484;-79
2021/11/25 07:10:33;;;;;;;49.35;17.27;;;5.70;99.90;;;;;;4977987;28;20376;-79
2021/11/25 07:12:59;;;;;;;53.25;17.15;;;5.70;99.90;;;;;;4976426;28;20058;-78
2021/11/25 07:15:26;;;;;;;49.05;17.13;;;5.70;99.90;;;;;;4975865;28;20389;-78
2021/11/25 07:17:52;;;;;;;46.75;16.33;;;5.80;99.90;;;;;;4976095;28;20038;-79
2021/11/25 07:20:18;;;;;;;40.22;15.55;;;5.80;99.90;;;;;;4977481;28;20023;-79
2021/11/25 07:22:44;;;;;;;46.50;15.70;;;5.80;99.90;;;;;;4978184;28;20027;-79
2021/11/25 07:25:12;;;;;;;50.40;15.70;;;5.80;99.90;;;;;;4976946;28;20023;-78
2021/11/25 07:27:40;;;;;;;50.88;16.20;;;5.80;99.90;;;;;;4959864;28;20491;-79
2021/11/25 07:30:08;;;;;;;50.17;16.42;;;5.80;99.90;;;;;;4976741;28;20101;-78
2021/11/25 07:32:34;;;;;;;48.47;16.92;;;5.80;99.90;;;;;;4975560;28;20026;-78
2021/11/25 07:34:59;;;;;;;48.80;18.05;;;5.80;99.90;;;;;;4975268;28;20546;-78
2021/11/25 07:37:25;;;;;;;42.03;15.85;;;5.80;99.90;;;;;;4975203;28;20034;-78
2021/11/25 07:39:51;;;;;;;47.03;17.67;;;5.90;99.90;;;;;;4974542;28;20058;-79
2021/11/25 07:42:16;;;;;;;40.67;16.05;;;5.90;99.90;;;;;;4974882;28;20027;-78
2021/11/25 07:44:42;;;;;;;46.30;16.73;;;5.90;99.90;;;;;;4957850;28;20019;-80
2021/11/25 07:47:08;;;;;;;46.92;16.05;;;6.00;99.90;;;;;;4973060;28;20078;-78
2021/11/25 07:49:34;;;;;;;48.75;15.85;;;6.00;99.90;;;;;;4974900;28;20034;-78
2021/11/25 07:52:00;;;;;;;45.92;16.08;;;6.00;99.90;;;;;;4958049;28;20038;-77
2021/11/25 07:54:27;;;;;;;53.90;18.05;;;6.10;99.90;;;;;;4958048;28;20019;-78
2021/11/25 07:56:53;;;;;;;47.25;17.38;;;6.10;99.90;;;;;;4977630;28;20026;-78
2021/11/25 07:59:19;;;;;;;49.80;17.30;;;6.10;99.90;;;;;;4976929;28;20038;-79
2021/11/25 08:01:45;;;;;;;47.03;14.95;;;6.20;99.90;;;;;;4978808;28;20033;-78
2021/11/25 08:04:10;;;;;;;50.58;17.30;;;6.20;99.90;;;;;;4961428;28;20496;-78
2021/11/25 08:06:36;;;;;;;51.95;17.42;;;6.20;99.90;;;;;;4976084;28;20038;-79
2021/11/25 08:09:02;;;;;;;46.95;15.98;;;6.20;99.90;;;;;;4961355;28;20023;-78
2021/11/25 08:11:28;;;;;;;54.65;17.95;;;6.20;99.90;;;;;;4961815;28;20027;-79
2021/11/25 08:13:54;;;;;;;48.00;16.98;;;6.20;99.90;;;;;;4981066;28;20026;-79
2021/11/25 08:16:19;;;;;;;53.17;18.30;;;6.20;99.90;;;;;;4962436;28;20041;-79
2021/11/25 08:18:45;;;;;;;46.47;15.63;;;6.20;99.90;;;;;;4964101;28;20447;-79
2021/11/25 08:21:14;;;;;;;55.30;18.23;;;6.30;99.90;;;;;;4980169;28;20023;-79
2021/11/25 08:23:39;;;;;;;48.03;18.35;;;6.30;99.90;;;;;;4980046;28;20050;-79
2021/11/25 08:26:06;;;;;;;46.50;15.93;;;6.40;99.90;;;;;;4963446;28;20019;-79
2021/11/25 08:28:32;;;;;;;57.58;17.58;;;6.40;99.90;;;;;;4978502;28;20019;-79
2021/11/25 08:30:58;;;;;;;49.03;18.42;;;6.40;99.90;;;;;;4980831;28;20035;-79
2021/11/25 08:33:25;;;;;;;46.53;17.25;;;6.40;99.90;;;;;;4979499;28;20054;-79
2021/11/25 08:35:51;;;;;;;50.38;16.98;;;6.40;99.90;;;;;;4962315;28;20015;-79
2021/11/25 08:38:16;;;;;;;52.92;18.35;;;6.40;99.90;;;;;;4977444;28;20057;-78
2021/11/25 08:40:42;;;;;;;56.42;16.38;;;6.40;99.90;;;;;;4957877;28;20026;-76
2021/11/25 08:43:08;;;;;;;45.38;15.65;;;6.40;99.90;;;;;;4955292;28;20023;-77
2021/11/25 08:45:34;;;;;;;53.70;17.92;;;6.40;99.90;;;;;;4971823;28;20027;-77
2021/11/25 08:48:02;;;;;;;47.58;16.42;;;6.50;99.90;;;;;;4974788;28;20026;-76
2021/11/25 08:50:28;;;;;;;50.87;16.93;;;6.50;99.90;;;;;;4956724;28;20027;-76
2021/11/25 08:52:54;;;;;;;53.78;17.42;;;6.50;99.90;;;;;;4957247;28;20027;-77
2021/11/25 08:55:20;;;;;;;51.33;16.95;;;6.40;99.90;;;;;;4974397;28;20038;-77
2021/11/25 08:57:46;;;;;;;48.30;15.77;;;6.40;99.90;;;;;;4976283;28;20110;-77
2021/11/25 09:00:12;;;;;;;48.47;16.38;;;6.50;99.90;;;;;;4977543;28;20110;-77
2021/11/25 09:02:38;;;;;;;50.53;17.30;;;6.50;99.90;;;;;;4960581;28;20027;-78
2021/11/25 09:05:06;;;;;;;49.30;16.42;;;6.40;99.90;;;;;;4975977;28;20412;-77
2021/11/25 09:07:32;;;;;;;48.63;17.23;;;6.50;99.90;;;;;;4978103;28;20469;-77
2021/11/25 09:09:57;;;;;;;56.00;17.73;;;6.50;99.90;;;;;;4978136;28;20057;-77
2021/11/25 09:12:23;;;;;;;46.88;16.90;;;6.60;99.90;;;;;;4978249;28;20035;-77
2021/11/25 09:14:48;;;;;;;43.65;16.75;;;6.70;99.90;;;;;;4978243;28;20038;-77
2021/11/25 09:17:14;;;;;;;47.97;16.08;;;6.70;99.90;;;;;;4976535;28;20037;-78
2021/11/25 09:19:39;;;;;;;47.35;16.92;;;6.80;99.90;;;;;;4976602;28;20027;-78
2021/11/25 09:22:05;;;;;;;45.22;16.50;;;6.90;99.90;;;;;;4961122;28;20062;-78
2021/11/25 09:24:31;;;;;;;50.72;16.73;;;7.00;99.90;;;;;;4977296;28;20023;-78
2021/11/25 09:26:56;;;;;;;50.97;17.63;;;7.00;99.90;;;;;;4977813;28;20435;-78
2021/11/25 09:29:22;;;;;;;57.47;17.65;;;7.00;99.90;;;;;;4975957;28;20454;-78
2021/11/25 09:31:48;;;;;;;46.22;18.42;;;7.10;99.90;;;;;;4976017;28;20114;-78
2021/11/25 09:34:13;;;;;;;49.28;16.17;;;7.00;99.90;;;;;;4977297;28;20398;-77
2021/11/25 09:36:40;;;;;;;45.63;15.30;;;7.00;99.90;;;;;;4977687;28;20077;-78
2021/11/25 09:39:08;;;;;;;49.40;16.98;;;7.00;99.90;;;;;;4977624;28;20428;-79
2021/11/25 09:41:34;;;;;;;44.25;16.00;;;7.10;99.90;;;;;;4961873;28;20023;-78
2021/11/25 09:44:00;;;;;;;54.50;17.10;;;7.10;99.90;;;;;;4976746;28;20069;-78
2021/11/25 09:46:26;;;;;;;45.60;16.60;;;7.00;99.90;;;;;;4974270;28;20441;-80
2021/11/25 09:48:57;;;;;;;49.50;16.90;;;7.10;99.90;;;;;;4958708;28;20019;-82
2021/11/25 09:51:24;;;;;;;45.70;15.00;;;7.10;99.90;;;;;;4957832;28;20549;-78
2021/11/25 09:53:51;;;;;;;48.35;16.33;;;7.10;99.90;;;;;;4975870;28;20022;-78
2021/11/25 09:56:16;;;;;;;47.58;15.77;;;7.10;99.90;;;;;;4977042;28;20039;-78
2021/11/25 09:58:42;;;;;;;49.63;16.30;;;7.20;99.90;;;;;;4959716;28;20388;-77
2021/11/25 10:01:11;;;;;;;48.92;17.20;;;7.30;99.90;;;;;;4975249;28;20388;-77
2021/11/25 10:03:42;;;;;;;48.05;16.30;;;7.30;99.90;;;;;;4976501;28;20053;-77
2021/11/25 10:06:08;;;;;;;46.40;16.92;;;7.40;99.90;;;;;;4959098;28;20038;-77
2021/11/25 10:08:35;;;;;;;49.83;18.02;;;7.50;99.90;;;;;;4976096;28;20031;-77
2021/11/25 10:11:00;;;;;;;52.38;17.20;;;7.60;99.90;;;;;;4972290;28;20035;-78
2021/11/25 10:13:35;;;;;;;50.38;17.65;;;7.70;99.90;;;;;;4962895;28;20056;-78
2021/11/25 10:16:00;;;;;;;42.78;15.80;;;7.80;99.90;;;;;;4976634;28;20023;-78
2021/11/25 10:18:34;;;;;;;45.35;15.82;;;7.90;99.90;;;;;;4975737;28;20380;-78
2021/11/25 10:21:05;;;;;;;44.17;14.57;;;8.10;99.90;;;;;;4976543;28;20050;-78
2021/11/25 10:23:31;;;;;;;43.55;15.07;;;8.10;99.90;;;;;;4970635;28;20023;-78
2021/11/25 10:26:01;;;;;;;41.58;13.77;;;8.20;99.90;;;;;;4961584;28;20135;-77
2021/11/25 10:28:35;;;;;;;38.95;14.35;;;8.20;99.90;;;;;;4959188;28;20081;-77
2021/11/25 10:31:14;;;;;;;40.50;14.50;;;8.30;99.90;;;;;;4976613;28;20026;-78
2021/11/25 10:33:55;;;;;;;43.28;13.55;;;8.30;99.90;;;;;;4974839;28;20061;-78
2021/11/25 10:36:31;;;;;;;36.17;13.50;;;8.40;99.90;;;;;;4965437;28;20023;-78
2021/11/25 10:42:03;;;;;;;39.03;14.25;;;8.60;99.90;;;;;;4965241;28;20142;-77
2021/11/25 10:44:31;;;;;;;33.63;12.60;;;8.70;99.90;;;;;;4975793;28;20102;-78
2021/11/25 10:47:07;;;;;;;36.47;13.73;;;8.80;99.90;;;;;;4975579;28;20019;-78
2021/11/25 10:49:37;;;;;;;49.15;15.18;;;8.80;99.90;;;;;;4974984;28;20106;-78
2021/11/25 10:52:10;;;;;;;37.35;13.43;;;8.80;99.90;;;;;;4958177;28;20023;-78
2021/11/25 10:54:44;;;;;;;35.25;12.15;;;8.80;99.90;;;;;;4975607;28;20398;-78
2021/11/25 10:57:10;;;;;;;30.90;11.70;;;8.90;99.90;;;;;;4939034;29;20024;-78
2021/11/25 10:59:39;;;;;;;34.03;12.05;;;9.00;99.90;;;;;;4938971;29;20027;-78
2021/11/25 11:02:29;;;;;;;28.23;11.07;;;9.00;99.90;;;;;;4954773;29;20054;-78
2021/11/25 11:04:57;;;;;;;33.70;10.95;;;9.00;99.90;;;;;;4955921;28;20034;-77
2021/11/25 11:07:32;;;;;;;29.93;11.60;;;9.10;99.90;;;;;;4960800;28;20483;-78
2021/11/25 11:09:59;;;;;;;30.45;11.38;;;9.10;99.90;;;;;;4958050;28;20015;-78
2021/11/25 11:12:34;;;;;;;24.35;9.63;;;9.10;99.90;;;;;;4975899;28;20113;-78
2021/11/25 11:15:26;;;;;;;25.45;9.07;;;9.20;99.90;;;;;;4975239;28;20058;-79
2021/11/25 11:18:42;;;;;;;26.60;7.78;;;9.30;99.90;;;;;;4957861;28;20475;-78
2021/11/25 11:20:48;;;;;;;22.45;7.85;;;9.40;99.90;;;;;;4974792;28;20042;-78
2021/11/25 11:23:17;;;;;;;21.63;6.88;;;9.50;99.90;;;;;;4975942;28;20050;-78
2021/11/25 11:25:44;;;;;;;18.92;5.85;;;9.60;99.90;;;;;;4957710;28;20049;-78
2021/11/25 11:28:11;;;;;;;21.67;5.97;;;9.60;99.90;;;;;;4974956;28;20022;-78
2021/11/25 11:30:38;;;;;;;13.10;4.70;;;9.70;99.90;;;;;;4975115;28;20026;-78
2021/11/25 11:33:15;;;;;;;23.92;5.45;;;9.70;99.90;;;;;;4975082;28;20066;-79
2021/11/25 11:35:42;;;;;;;17.08;4.93;;;9.70;99.90;;;;;;4975123;28;20038;-78
2021/11/25 11:38:13;;;;;;;12.23;3.80;;;9.70;99.90;;;;;;4957544;28;20026;-78
2021/11/25 11:40:39;;;;;;;9.80;2.30;;;9.70;99.90;;;;;;4975278;28;20038;-78
2021/11/25 11:43:05;;;;;;;8.32;1.70;;;9.60;99.90;;;;;;4974812;28;20022;-78
2021/11/25 11:45:37;;;;;;;11.88;1.88;;;9.60;99.90;;;;;;4974911;28;20023;-78
2021/11/25 11:48:05;;;;;;;9.30;2.55;;;9.60;99.90;;;;;;4974904;28;20047;-78
2021/11/25 11:50:32;;;;;;;3.42;0.85;;;9.60;99.90;;;;;;4973557;28;20499;-78
2021/11/25 11:53:03;;;;;;;12.10;0.50;;;9.60;99.90;;;;;;4974750;28;20037;-78
2021/11/25 11:55:37;;;;;;;7.93;0.90;;;9.70;99.90;;;;;;4957281;28;20394;-78
2021/11/25 11:58:43;;;;;;;8.25;1.20;;;9.70;99.90;;;;;;4974604;28;20034;-78
2021/11/25 12:01:14;;;;;;;7.53;0.52;;;9.70;99.90;;;;;;4974463;28;20588;-78
2021/11/25 12:03:54;;;;;;;7.75;0.43;;;9.80;99.90;;;;;;4974475;28;20023;-78
2021/11/25 12:06:52;;;;;;;2.88;0.10;;;9.90;99.90;;;;;;4974249;28;20066;-78
2021/11/25 12:09:23;;;;;;;4.40;0.10;;;10.00;99.90;;;;;;4932316;28;20035;-78
2021/11/25 12:11:55;;;;;;;2.60;0.30;;;10.00;99.90;;;;;;4973315;28;20520;-77
2021/11/25 12:14:31;;;;;;;6.55;0.05;;;10.00;99.90;;;;;;4957183;28;20031;-78
2021/11/25 12:17:00;;;;;;;16.80;1.27;;;10.10;99.90;;;;;;4974560;28;20081;-78
2021/11/25 12:19:36;;;;;;;3.88;0.30;;;10.10;99.90;;;;;;4972418;28;20488;-78
2021/11/25 12:22:15;;;;;;;2.10;0.00;;;10.00;99.90;;;;;;4955094;29;20429;-78
2021/11/25 12:24:53;;;;;;;6.10;0.25;;;10.00;99.90;;;;;;4955220;29;20024;-76
2021/11/25 12:27:25;;;;;;;6.50;0.00;;;10.00;99.90;;;;;;4938242;29;20516;-76
2021/11/25 12:30:06;;;;;;;4.65;0.00;;;10.00;99.90;;;;;;4955010;29;20028;-77
2021/11/25 12:35:20;;;;;;;5.68;0.00;;;9.90;99.90;;;;;;4958902;28;20059;-76
2021/11/25 12:40:14;;;;;;;6.35;0.10;;;9.90;99.90;;;;;;4958974;29;20119;-77
2021/11/25 12:43:08;;;;;;;3.22;0.00;;;9.90;99.90;;;;;;4958628;29;20023;-76
2021/11/25 12:45:41;;;;;;;3.50;0.10;;;9.90;99.90;;;;;;4972983;28;20120;-77
2021/11/25 12:48:08;;;;;;;6.68;0.63;;;9.90;99.90;;;;;;4977963;28;20015;-77
2021/11/25 12:50:35;;;;;;;7.53;0.00;;;9.90;99.90;;;;;;4978023;28;20031;-77
2021/11/25 12:53:11;;;;;;;3.33;0.00;;;9.90;99.90;;;;;;4976723;28;20026;-77